Time;durP1;ratioP1;P1;durP2;ratioP2;P2;SDS_P1;SDS_P2;PMS_P1;PMS_P2;Temp;Humidity;BMP_temperature;BMP_pressure;BME280_temperature;BME280_humidity;BME280_pressure;Samples;Min_cycle;Max_cycle;Signal;HPM_P1;HPM_P2
2021/05/23 00:01:17;;;;;;;0.60;0.60;;;;;;;12.21;85.15;100295.97;5095616;28;20451;-65
2021/05/23 00:03:43;;;;;;;0.50;0.40;;;;;;;12.22;84.97;100297.56;5094764;28;20437;-67
2021/05/23 00:06:09;;;;;;;1.73;1.03;;;;;;;12.14;85.55;100295.66;5095634;28;20805;-66
2021/05/23 00:08:35;;;;;;;0.53;0.53;;;;;;;12.11;85.67;100301.69;5094565;28;20449;-68
2021/05/23 00:11:04;;;;;;;1.20;0.80;;;;;;;12.10;86.02;100297.41;5095378;28;20447;-66
2021/05/23 00:13:32;;;;;;;0.53;0.50;;;;;;;12.09;86.31;100299.31;5095340;28;20825;-66
2021/05/23 00:16:01;;;;;;;0.60;0.33;;;;;;;12.09;86.51;100301.25;5095357;28;20465;-67
2021/05/23 00:18:29;;;;;;;0.80;0.60;;;;;;;12.04;87.78;100304.09;5094542;28;20447;-66
2021/05/23 00:20:55;;;;;;;0.77;0.67;;;;;;;12.05;86.83;100303.78;5095046;28;20432;-67
2021/05/23 00:23:22;;;;;;;0.80;0.60;;;;;;;12.02;86.61;100309.03;5095205;28;20439;-66
2021/05/23 00:25:48;;;;;;;0.60;0.50;;;;;;;11.98;88.51;100311.59;5094964;28;20487;-67
2021/05/23 00:28:14;;;;;;;0.70;0.70;;;;;;;11.98;87.09;100313.50;5093793;28;20951;-66
2021/05/23 00:30:40;;;;;;;1.53;0.63;;;;;;;11.97;87.05;100306.47;5095097;28;20484;-66
2021/05/23 00:33:08;;;;;;;0.80;0.63;;;;;;;11.90;86.67;100311.56;5095464;28;20445;-66
2021/05/23 00:35:35;;;;;;;1.83;0.60;;;;;;;11.79;88.26;100311.84;5094932;28;20464;-67
2021/05/23 00:38:01;;;;;;;0.50;0.37;;;;;;;11.76;88.13;100322.53;5093737;28;20926;-67
2021/05/23 00:40:28;;;;;;;1.43;0.70;;;;;;;11.72;88.54;100319.63;5094544;28;20812;-66
2021/05/23 00:42:54;;;;;;;0.70;0.67;;;;;;;11.68;88.34;100315.16;5094872;28;20440;-65
2021/05/23 00:45:20;;;;;;;1.20;0.90;;;;;;;11.70;87.31;100318.38;5094773;28;20467;-66
2021/05/23 00:47:47;;;;;;;1.00;1.00;;;;;;;11.66;87.83;100311.97;5093759;28;20452;-65
2021/05/23 00:50:18;;;;;;;0.97;0.57;;;;;;;11.61;87.72;100323.75;5094264;28;20523;-67
2021/05/23 00:52:44;;;;;;;1.67;0.67;;;;;;;11.55;87.03;100317.69;5094308;28;20417;-66
2021/05/23 00:55:11;;;;;;;1.10;1.00;;;;;;;11.46;87.61;100321.47;5094530;28;20515;-66
2021/05/23 00:57:37;;;;;;;1.17;0.70;;;;;;;11.46;88.53;100311.41;5093815;28;20443;-66
2021/05/23 01:00:06;;;;;;;0.70;0.70;;;;;;;11.44;89.62;100313.66;5094571;28;20440;-66
2021/05/23 01:02:42;;;;;;;1.03;0.90;;;;;;;11.43;89.98;100322.09;5094045;28;20440;-65
2021/05/23 01:05:09;;;;;;;1.33;1.10;;;;;;;11.39;89.60;100327.34;5094209;28;20521;-65
2021/05/23 01:07:36;;;;;;;2.70;1.40;;;;;;;11.39;90.25;100331.97;5093260;28;20494;-66
2021/05/23 01:10:07;;;;;;;1.07;0.80;;;;;;;11.36;90.78;100326.06;5094258;28;20476;-67
2021/05/23 01:13:02;;;;;;;1.20;0.83;;;;;;;11.30;90.50;100331.94;5094328;28;20436;-65
2021/05/23 01:15:30;;;;;;;0.60;0.57;;;;;;;11.27;90.58;100333.34;5092958;28;20825;-65
2021/05/23 01:17:59;;;;;;;2.30;0.67;;;;;;;11.24;91.03;100336.69;5093366;28;20448;-66
2021/05/23 01:20:44;;;;;;;0.97;0.67;;;;;;;11.17;91.27;100330.91;5094240;28;20443;-66
2021/05/23 01:23:24;;;;;;;1.20;0.93;;;;;;;11.16;91.03;100340.16;5094393;28;20511;-65
2021/05/23 01:25:56;;;;;;;3.70;1.20;;;;;;;11.11;91.66;100340.28;5093812;28;20982;-65
2021/05/23 01:28:22;;;;;;;1.53;1.20;;;;;;;11.09;91.93;100342.50;5093462;28;20428;-65
2021/05/23 01:30:50;;;;;;;1.13;0.63;;;;;;;11.06;92.13;100332.28;5093755;28;20484;-66
2021/05/23 01:33:19;;;;;;;0.77;0.77;;;;;;;11.03;91.48;100343.75;5093935;28;20509;-65
2021/05/23 01:35:51;;;;;;;4.23;0.77;;;;;;;11.02;91.77;100342.13;5093797;28;20465;-66
2021/05/23 01:38:21;;;;;;;2.23;0.80;;;;;;;10.95;91.13;100345.28;5093120;28;20439;-66
2021/05/23 01:40:49;;;;;;;0.77;0.40;;;;;;;10.81;90.06;100347.28;5093630;28;20470;-66
2021/05/23 01:43:16;;;;;;;0.80;0.60;;;;;;;10.82;90.27;100338.84;5093624;28;20444;-66
2021/05/23 01:45:42;;;;;;;1.00;0.60;;;;;;;10.80;91.04;100345.66;5093658;28;20520;-65
2021/05/23 01:48:10;;;;;;;0.60;0.60;;;;;;;10.70;91.00;100344.00;5092847;28;20447;-65
2021/05/23 01:50:37;;;;;;;0.60;0.50;;;;;;;10.70;90.17;100344.00;5093378;28;20480;-65
2021/05/23 01:53:05;;;;;;;4.20;1.00;;;;;;;10.72;90.17;100347.22;5093644;28;20455;-65
2021/05/23 01:55:32;;;;;;;1.57;0.80;;;;;;;10.75;91.38;100352.00;5093139;28;21020;-64
2021/05/23 01:57:59;;;;;;;1.20;1.10;;;;;;;10.79;92.21;100355.69;5092522;28;20455;-63
2021/05/23 02:00:29;;;;;;;0.77;0.60;;;;;;;10.82;92.08;100354.28;5093464;28;20440;-68
2021/05/23 02:02:55;;;;;;;1.47;0.80;;;;;;;10.88;90.81;100358.47;5094463;28;20439;-66
2021/05/23 02:05:22;;;;;;;0.70;0.70;;;;;;;10.88;91.22;100349.53;5094144;28;20825;-68
2021/05/23 02:07:48;;;;;;;1.37;0.50;;;;;;;10.87;90.77;100354.16;5093094;28;20439;-67
2021/05/23 02:10:17;;;;;;;1.30;1.13;;;;;;;10.83;91.82;100348.56;5093452;28;20511;-67
2021/05/23 02:12:45;;;;;;;1.43;0.90;;;;;;;10.84;92.66;100357.47;5093712;28;20455;-67
2021/05/23 02:15:12;;;;;;;3.00;1.70;;;;;;;10.82;91.65;100357.00;5093438;28;20460;-68
2021/05/23 02:17:40;;;;;;;0.57;0.50;;;;;;;10.80;91.92;100356.50;5092495;28;20997;-68
2021/05/23 02:20:09;;;;;;;1.53;1.20;;;;;;;10.79;92.04;100342.16;5093555;28;20443;-68
2021/05/23 02:22:38;;;;;;;0.80;0.80;;;;;;;10.74;92.26;100353.09;5094014;28;20474;-67
2021/05/23 02:25:05;;;;;;;1.00;0.90;;;;;;;10.69;92.86;100353.25;5094720;28;20452;-67
2021/05/23 02:27:36;;;;;;;1.53;0.90;;;;;;;10.64;93.70;100353.38;5099656;28;20455;-67
2021/05/23 02:30:07;;;;;;;1.20;1.10;;;;;;;10.66;93.21;100358.47;5098679;28;20469;-68
2021/05/23 02:32:34;;;;;;;1.03;0.93;;;;;;;10.52;92.41;100345.78;5100350;28;20451;-67
2021/05/23 02:35:00;;;;;;;4.00;1.47;;;;;;;10.42;91.72;100350.63;5100394;28;20468;-66
2021/05/23 02:37:26;;;;;;;1.33;0.87;;;;;;;10.34;91.28;100355.66;5099522;28;21058;-67
2021/05/23 02:39:53;;;;;;;0.93;0.70;;;;;;;10.25;91.77;100359.38;5099955;28;20934;-66
2021/05/23 02:42:19;;;;;;;1.53;1.20;;;;;;;10.16;91.45;100353.06;5100177;28;20493;-65
2021/05/23 02:44:45;;;;;;;2.00;1.00;;;;;;;10.06;91.99;100362.22;5099739;28;20470;-67
2021/05/23 02:47:11;;;;;;;0.80;0.63;;;;;;;10.04;91.64;100367.09;5099170;28;20444;-66
2021/05/23 02:49:42;;;;;;;2.23;1.10;;;;;;;10.06;92.28;100370.31;5099430;28;20480;-65
2021/05/23 02:52:09;;;;;;;1.20;0.60;;;;;;;9.95;93.49;100366.22;5099799;28;20420;-64
2021/05/23 02:54:35;;;;;;;0.80;0.53;;;;;;;10.02;94.00;100370.13;5099453;28;20839;-65
2021/05/23 02:57:01;;;;;;;1.67;1.10;;;;;;;10.09;94.49;100370.53;5098908;28;20436;-67
2021/05/23 02:59:27;;;;;;;0.70;0.70;;;;;;;10.13;94.19;100368.00;5099471;28;21003;-65
2021/05/23 03:01:54;;;;;;;0.87;0.67;;;;;;;10.18;94.67;100367.09;5098815;28;20436;-66
2021/05/23 03:04:20;;;;;;;1.33;1.13;;;;;;;10.21;95.21;100364.56;5099550;28;20443;-65
2021/05/23 03:06:46;;;;;;;0.93;0.80;;;;;;;10.32;94.60;100363.28;5099831;28;20475;-67
2021/05/23 03:09:12;;;;;;;1.10;1.10;;;;;;;10.39;95.22;100365.56;5098617;28;20487;-67
2021/05/23 03:11:38;;;;;;;1.67;1.10;;;;;;;10.48;93.83;100360.22;5099618;28;20467;-66
2021/05/23 03:14:04;;;;;;;1.60;0.90;;;;;;;10.57;92.90;100369.22;5099484;28;21177;-67
2021/05/23 03:16:30;;;;;;;0.83;0.80;;;;;;;10.59;92.50;100369.75;5099397;28;20934;-66
2021/05/23 03:18:56;;;;;;;1.53;0.93;;;;;;;10.63;92.57;100373.44;5098816;28;20531;-67
2021/05/23 03:21:22;;;;;;;4.20;0.80;;;;;;;10.68;93.00;100378.72;5098976;28;20441;-67
2021/05/23 03:23:48;;;;;;;2.40;0.87;;;;;;;10.76;93.15;100378.00;5099387;28;20443;-66
2021/05/23 03:26:15;;;;;;;0.70;0.60;;;;;;;10.77;93.09;100373.38;5099484;28;20456;-66
2021/05/23 03:28:41;;;;;;;1.27;1.00;;;;;;;10.81;92.45;100375.16;5098433;28;20448;-66
2021/05/23 03:31:07;;;;;;;1.80;1.20;;;;;;;10.79;90.91;100371.16;5099044;28;20953;-67
2021/05/23 03:33:33;;;;;;;1.80;1.23;;;;;;;10.75;90.14;100376.38;5099403;28;20478;-65
2021/05/23 03:35:59;;;;;;;0.80;0.77;;;;;;;10.60;89.93;100368.63;5099043;28;20967;-66
2021/05/23 03:38:25;;;;;;;0.90;0.63;;;;;;;10.53;90.07;100371.75;5095098;28;20910;-66
2021/05/23 03:40:51;;;;;;;0.70;0.60;;;;;;;10.50;89.87;100377.78;5095932;28;20441;-65
2021/05/23 03:43:17;;;;;;;0.93;0.90;;;;;;;10.47;89.41;100374.88;5095747;28;20505;-67
2021/05/23 03:45:44;;;;;;;0.50;0.47;;;;;;;10.40;89.68;100372.56;5095389;28;20452;-67
2021/05/23 03:48:10;;;;;;;1.40;1.00;;;;;;;10.30;90.83;100379.03;5096024;28;20441;-65
2021/05/23 03:50:36;;;;;;;0.80;0.80;;;;;;;10.30;91.55;100378.22;5095520;28;20998;-67
2021/05/23 03:53:03;;;;;;;0.93;0.80;;;;;;;10.39;91.99;100379.09;5094973;28;20433;-67
2021/05/23 03:55:29;;;;;;;1.40;1.30;;;;;;;10.34;92.90;100377.31;5095421;28;20468;-65
2021/05/23 03:57:56;;;;;;;0.53;0.53;;;;;;;10.37;93.48;100384.03;5095842;28;20447;-66
2021/05/23 04:00:25;;;;;;;3.43;0.53;;;;;;;10.46;93.73;100384.13;5095409;28;20947;-66
2021/05/23 04:02:53;;;;;;;0.67;0.67;;;;;;;10.49;93.32;100384.31;5095113;28;20441;-65
2021/05/23 04:05:19;;;;;;;1.00;0.70;;;;;;;10.49;94.55;100381.59;5095663;28;20567;-65
2021/05/23 04:07:46;;;;;;;2.30;0.83;;;;;;;10.57;94.23;100386.28;5095217;28;20963;-66
2021/05/23 04:10:14;;;;;;;0.87;0.70;;;;;;;10.68;94.14;100392.28;5095345;28;20538;-67
2021/05/23 04:12:42;;;;;;;0.77;0.60;;;;;;;10.79;93.85;100390.13;5094746;28;20440;-66
2021/05/23 04:15:11;;;;;;;2.47;0.90;;;;;;;10.92;92.43;100393.88;5095308;28;20467;-66
2021/05/23 04:17:38;;;;;;;0.90;0.70;;;;;;;10.96;91.96;100398.38;5095423;28;20509;-66
2021/05/23 04:20:05;;;;;;;1.47;1.23;;;;;;;11.07;90.86;100409.78;5094240;28;20955;-64
2021/05/23 04:22:31;;;;;;;1.70;0.60;;;;;;;11.11;90.67;100414.28;5095374;28;20445;-61
2021/05/23 04:24:57;;;;;;;0.90;0.80;;;;;;;11.16;90.05;100407.13;5095357;28;20471;-63
2021/05/23 04:27:23;;;;;;;0.83;0.33;;;;;;;11.18;89.29;100416.53;5095235;28;20514;-65
2021/05/23 04:29:49;;;;;;;1.07;0.67;;;;;;;11.23;89.63;100421.03;5094196;28;20484;-67
2021/05/23 04:32:15;;;;;;;0.90;0.60;;;;;;;11.21;89.53;100426.78;5094953;28;20444;-66
2021/05/23 04:34:42;;;;;;;1.27;0.83;;;;;;;11.19;90.01;100434.41;5094981;28;20499;-66
2021/05/23 04:37:08;;;;;;;1.20;1.10;;;;;;;11.27;90.39;100425.53;5095214;28;20432;-66
2021/05/23 04:39:34;;;;;;;1.23;0.80;;;;;;;11.34;89.76;100439.47;5094287;28;20904;-66
2021/05/23 04:42:00;;;;;;;0.70;0.47;;;;;;;11.37;89.54;100440.75;5094966;28;20440;-65
2021/05/23 04:44:26;;;;;;;5.67;0.90;;;;;;;11.44;88.97;100445.75;5094782;28;20531;-65
2021/05/23 04:46:52;;;;;;;1.40;0.70;;;;;;;11.51;89.24;100446.09;5094093;28;20973;-67
2021/05/23 04:49:18;;;;;;;1.17;0.80;;;;;;;11.63;89.00;100447.13;5095634;28;20852;-65
2021/05/23 04:51:45;;;;;;;0.87;0.77;;;;;;;11.65;87.87;100444.13;5094692;28;20454;-66
2021/05/23 04:54:12;;;;;;;1.03;0.77;;;;;;;11.69;87.70;100445.09;5094636;28;20440;-66
2021/05/23 04:56:38;;;;;;;0.60;0.50;;;;;;;11.73;87.67;100446.06;5093695;28;21038;-67
2021/05/23 04:59:04;;;;;;;0.97;0.50;;;;;;;11.72;87.50;100457.22;5094114;28;20437;-65
2021/05/23 05:01:30;;;;;;;0.90;0.90;;;;;;;11.69;87.07;100453.22;5094428;28;20440;-65
2021/05/23 05:03:56;;;;;;;0.83;0.83;;;;;;;11.71;87.46;100456.41;5094416;28;20501;-65
2021/05/23 05:06:22;;;;;;;0.73;0.60;;;;;;;11.70;87.34;100464.88;5094226;28;21002;-66
2021/05/23 05:08:49;;;;;;;3.63;0.83;;;;;;;11.75;87.81;100465.53;5093209;28;20445;-66
2021/05/23 05:11:15;;;;;;;0.50;0.50;;;;;;;11.77;87.48;100459.78;5094354;28;20477;-65
2021/05/23 05:13:41;;;;;;;0.70;0.50;;;;;;;11.83;87.73;100459.41;5094189;28;20935;-66
2021/05/23 05:16:08;;;;;;;0.97;0.80;;;;;;;11.93;87.06;100466.47;5094163;28;20457;-67
2021/05/23 05:18:35;;;;;;;0.50;0.40;;;;;;;11.96;86.19;100475.91;5094061;28;20440;-66
2021/05/23 05:21:01;;;;;;;1.10;0.80;;;;;;;12.00;86.58;100471.44;5094323;28;20826;-67
2021/05/23 05:23:27;;;;;;;1.27;0.80;;;;;;;12.06;86.02;100475.63;5094129;28;20444;-66
2021/05/23 05:25:54;;;;;;;1.17;0.60;;;;;;;12.18;86.02;100486.69;5094083;28;20986;-68
2021/05/23 05:28:20;;;;;;;1.33;0.87;;;;;;;12.31;85.39;100485.78;5093290;28;20469;-68
2021/05/23 05:30:46;;;;;;;0.70;0.60;;;;;;;12.42;84.60;100488.19;5110500;28;20492;-67
2021/05/23 05:33:12;;;;;;;0.90;0.70;;;;;;;12.54;84.74;100493.81;5114327;28;20498;-66
2021/05/23 05:35:38;;;;;;;1.40;0.90;;;;;;;12.60;84.15;100495.25;5114444;28;20834;-67
2021/05/23 05:38:04;;;;;;;0.63;0.63;;;;;;;12.52;83.31;100496.03;5113105;28;20443;-68
2021/05/23 05:40:30;;;;;;;0.50;0.40;;;;;;;12.47;83.77;100497.00;5113683;28;20439;-67
2021/05/23 05:42:57;;;;;;;0.97;0.40;;;;;;;12.44;83.43;100504.97;5114176;28;20467;-68
2021/05/23 05:45:23;;;;;;;0.90;0.67;;;;;;;12.47;83.49;100496.19;5114163;28;20456;-65
2021/05/23 05:47:49;;;;;;;0.80;0.73;;;;;;;12.51;82.99;100511.53;5112827;28;20977;-65
2021/05/23 05:50:15;;;;;;;0.70;0.50;;;;;;;12.54;83.46;100510.91;5113752;28;20479;-67
2021/05/23 05:52:41;;;;;;;0.90;0.50;;;;;;;12.53;82.92;100519.41;5114059;28;20442;-65
2021/05/23 05:55:08;;;;;;;1.10;0.80;;;;;;;12.50;82.66;100501.00;5113565;28;20475;-65
2021/05/23 05:57:34;;;;;;;1.30;0.80;;;;;;;12.52;82.97;100512.34;5113156;28;20451;-66
2021/05/23 06:00:01;;;;;;;0.50;0.43;;;;;;;12.50;83.17;100514.59;5113223;28;20440;-64
2021/05/23 06:02:27;;;;;;;0.90;0.70;;;;;;;12.55;83.35;100519.88;5113574;28;20446;-65
2021/05/23 06:04:52;;;;;;;1.13;0.60;;;;;;;12.66;82.96;100518.47;5113597;28;20466;-65
2021/05/23 06:07:22;;;;;;;0.70;0.47;;;;;;;12.69;84.04;100528.69;5112404;28;20455;-65
2021/05/23 06:09:48;;;;;;;0.60;0.50;;;;;;;12.78;82.69;100520.56;5113609;28;20479;-65
2021/05/23 06:12:17;;;;;;;0.60;0.43;;;;;;;12.80;81.71;100535.44;5113817;28;20485;-65
2021/05/23 06:14:43;;;;;;;0.40;0.30;;;;;;;12.75;81.88;100526.63;5113533;28;20856;-66
2021/05/23 06:17:09;;;;;;;0.60;0.60;;;;;;;12.75;82.55;100542.91;5112769;28;20440;-65
2021/05/23 06:19:35;;;;;;;1.00;0.70;;;;;;;12.66;81.32;100542.09;5113237;28;20427;-64
2021/05/23 06:22:01;;;;;;;0.60;0.50;;;;;;;12.61;81.25;100546.56;5113403;28;20526;-63
2021/05/23 06:24:27;;;;;;;0.60;0.40;;;;;;;12.66;81.88;100550.25;5113691;28;20440;-67
2021/05/23 06:26:54;;;;;;;0.63;0.40;;;;;;;12.68;81.71;100550.75;5113152;28;20482;-66
2021/05/23 06:29:20;;;;;;;0.50;0.40;;;;;;;12.63;81.98;100557.13;5112871;28;20487;-67
2021/05/23 06:31:46;;;;;;;0.60;0.40;;;;;;;12.59;81.76;100561.59;5112074;28;20444;-66
2021/05/23 06:34:13;;;;;;;0.77;0.60;;;;;;;12.57;82.48;100558.38;5101747;28;20463;-65
2021/05/23 06:36:39;;;;;;;0.80;0.57;;;;;;;12.55;81.99;100575.00;5092305;28;20516;-66
2021/05/23 06:39:06;;;;;;;0.83;0.50;;;;;;;12.49;82.25;100567.31;5092038;28;20975;-66
2021/05/23 06:41:32;;;;;;;0.73;0.60;;;;;;;12.45;83.21;100574.50;5093131;28;20448;-65
2021/05/23 06:43:59;;;;;;;0.60;0.60;;;;;;;12.30;85.07;100571.06;5092671;28;20478;-66
2021/05/23 06:46:25;;;;;;;4.20;0.83;;;;;;;12.14;87.02;100569.88;5092852;28;20818;-67
2021/05/23 06:48:51;;;;;;;0.50;0.40;;;;;;;12.08;89.08;100573.81;5092202;28;20959;-66
2021/05/23 06:51:18;;;;;;;1.17;1.07;;;;;;;12.04;89.44;100575.56;5092941;28;20476;-67
2021/05/23 06:53:44;;;;;;;0.90;0.80;;;;;;;11.96;89.62;100573.63;5093167;28;20475;-65
2021/05/23 06:56:10;;;;;;;1.53;0.63;;;;;;;11.97;89.57;100580.66;5092545;28;20991;-69
2021/05/23 06:58:36;;;;;;;2.30;0.67;;;;;;;12.00;91.46;100577.31;5091977;28;20440;-64
2021/05/23 07:01:02;;;;;;;0.50;0.47;;;;;;;12.09;91.41;100583.59;5093765;28;20433;-67
2021/05/23 07:03:28;;;;;;;0.70;0.60;;;;;;;12.09;92.09;100580.88;5092903;28;20452;-66
2021/05/23 07:05:55;;;;;;;0.60;0.50;;;;;;;12.11;93.32;100570.50;5092572;28;20881;-65
2021/05/23 07:08:22;;;;;;;0.70;0.70;;;;;;;12.22;93.78;100577.28;5092144;28;20466;-66
2021/05/23 07:10:48;;;;;;;0.73;0.73;;;;;;;12.32;92.32;100578.91;5092015;28;20483;-66
2021/05/23 07:13:14;;;;;;;0.73;0.70;;;;;;;12.41;91.77;100577.03;5094496;28;20448;-65
2021/05/23 07:15:40;;;;;;;1.60;0.70;;;;;;;12.56;92.64;100586.66;5096585;28;20464;-65
2021/05/23 07:18:06;;;;;;;0.70;0.50;;;;;;;12.68;91.64;100591.53;5095440;28;20477;-65
2021/05/23 07:20:32;;;;;;;0.50;0.40;;;;;;;12.75;91.50;100587.25;5096552;28;20445;-65
2021/05/23 07:22:58;;;;;;;0.60;0.50;;;;;;;12.88;91.15;100588.22;5096225;28;20834;-65
2021/05/23 07:25:25;;;;;;;0.80;0.80;;;;;;;12.96;89.02;100592.88;5096587;28;20460;-65
2021/05/23 07:27:51;;;;;;;1.13;0.80;;;;;;;13.10;88.02;100587.28;5095645;28;20897;-65
2021/05/23 07:30:18;;;;;;;2.50;0.90;;;;;;;13.17;87.34;100589.56;5095820;28;20483;-65
2021/05/23 07:32:44;;;;;;;0.60;0.40;;;;;;;13.22;87.20;100601.09;5114417;28;20455;-65
2021/05/23 07:35:11;;;;;;;0.60;0.50;;;;;;;13.27;87.24;100592.78;5116424;28;20482;-65
2021/05/23 07:37:37;;;;;;;0.83;0.67;;;;;;;13.34;86.73;100593.13;5115706;28;20446;-65
2021/05/23 07:40:03;;;;;;;0.60;0.57;;;;;;;13.50;86.18;100595.34;5116665;28;20435;-65
2021/05/23 07:42:30;;;;;;;3.27;0.70;;;;;;;13.48;85.62;100603.06;5116573;28;20443;-63
2021/05/23 07:44:56;;;;;;;2.73;0.90;;;;;;;13.53;83.44;100600.16;5116423;28;20558;-65
2021/05/23 07:47:23;;;;;;;0.50;0.50;;;;;;;13.59;83.34;100602.41;5115667;28;20444;-66
2021/05/23 07:49:49;;;;;;;3.37;1.13;;;;;;;13.62;82.36;100599.03;5116016;28;20485;-67
2021/05/23 07:52:15;;;;;;;1.83;1.00;;;;;;;13.63;83.26;100608.00;5115882;28;20848;-66
2021/05/23 07:54:42;;;;;;;0.67;0.53;;;;;;;13.55;82.54;100601.47;5115980;28;20510;-66
2021/05/23 07:57:08;;;;;;;0.60;0.60;;;;;;;13.57;83.65;100601.13;5115170;28;20953;-67
2021/05/23 07:59:35;;;;;;;1.13;0.70;;;;;;;13.62;82.63;100603.69;5115596;28;20432;-66
2021/05/23 08:02:02;;;;;;;8.83;0.73;;;;;;;13.72;82.31;100608.78;5115924;28;20442;-66
2021/05/23 08:04:28;;;;;;;2.10;0.97;;;;;;;13.87;82.63;100618.41;5115795;28;20846;-65
2021/05/23 08:06:54;;;;;;;0.57;0.43;;;;;;;14.05;83.80;100621.91;5115789;28;20447;-67
2021/05/23 08:09:21;;;;;;;0.70;0.70;;;;;;;14.12;81.45;100612.13;5115214;28;20428;-66
2021/05/23 08:11:47;;;;;;;0.70;0.70;;;;;;;14.22;80.40;100623.81;5116032;28;20443;-65
2021/05/23 08:14:15;;;;;;;0.60;0.60;;;;;;;14.26;78.40;100628.28;5115321;28;20499;-66
2021/05/23 08:16:44;;;;;;;0.97;0.77;;;;;;;14.19;78.84;100619.00;5115865;28;20460;-66
2021/05/23 08:19:10;;;;;;;1.37;0.60;;;;;;;14.26;80.29;100632.94;5115797;28;20471;-68
2021/05/23 08:21:36;;;;;;;0.70;0.70;;;;;;;14.46;78.59;100639.59;5115836;28;20818;-67
2021/05/23 08:24:03;;;;;;;0.80;0.70;;;;;;;14.42;76.76;100635.91;5115466;28;20475;-67
2021/05/23 08:26:29;;;;;;;0.60;0.60;;;;;;;14.39;77.76;100634.66;5115470;28;20584;-67
2021/05/23 08:28:54;;;;;;;1.10;0.83;;;;;;;14.57;78.75;100643.59;5115256;28;20447;-66
2021/05/23 08:31:20;;;;;;;0.57;0.37;;;;;;;14.55;77.92;100649.38;5115923;28;20544;-66
2021/05/23 08:33:47;;;;;;;0.83;0.70;;;;;;;14.57;78.06;100643.59;5115911;28;20450;-65
2021/05/23 08:36:13;;;;;;;0.70;0.60;;;;;;;14.62;77.18;100643.41;5115702;28;20463;-66
2021/05/23 08:38:39;;;;;;;1.63;1.00;;;;;;;14.72;77.47;100650.44;5114702;28;20448;-66
2021/05/23 08:41:07;;;;;;;0.50;0.40;;;;;;;14.71;75.11;100655.09;5115374;28;20926;-66
2021/05/23 08:43:33;;;;;;;1.37;0.87;;;;;;;14.75;75.60;100656.03;5115137;28;20943;-65
2021/05/23 08:46:00;;;;;;;0.60;0.60;;;;;;;14.92;76.86;100652.44;5115359;28;20495;-66
2021/05/23 08:48:27;;;;;;;0.50;0.40;;;;;;;15.08;78.15;100658.91;5114397;28;20587;-66
2021/05/23 08:50:54;;;;;;;0.60;0.60;;;;;;;14.93;76.15;100667.66;5115156;28;20479;-66
2021/05/23 08:53:21;;;;;;;1.20;0.90;;;;;;;14.87;75.98;100660.78;5115104;28;20819;-66
2021/05/23 08:55:47;;;;;;;1.20;0.80;;;;;;;14.71;75.44;100665.19;5114981;28;20501;-65
2021/05/23 08:58:15;;;;;;;0.70;0.67;;;;;;;14.72;75.17;100674.97;5114146;28;20447;-66
2021/05/23 09:00:41;;;;;;;0.50;0.30;;;;;;;14.67;74.07;100675.16;5115037;28;20535;-66
2021/05/23 09:03:11;;;;;;;1.00;0.70;;;;;;;14.71;75.08;100676.91;5114799;28;20987;-65
2021/05/23 09:05:39;;;;;;;0.57;0.43;;;;;;;14.93;74.21;100686.75;5115281;28;20455;-65
2021/05/23 09:08:09;;;;;;;0.90;0.57;;;;;;;15.03;71.99;100693.78;5114096;28;20435;-66
2021/05/23 09:10:37;;;;;;;2.00;0.87;;;;;;;14.90;72.19;100690.13;5114610;28;21024;-65
2021/05/23 09:13:04;;;;;;;0.63;0.40;;;;;;;14.91;71.55;100685.47;5114588;28;20447;-65
2021/05/23 09:15:30;;;;;;;0.60;0.47;;;;;;;15.10;72.46;100694.88;5114525;28;20451;-64
2021/05/23 09:18:01;;;;;;;0.50;0.47;;;;;;;15.28;72.49;100701.03;5113610;28;20439;-67
2021/05/23 09:20:28;;;;;;;0.97;0.77;;;;;;;15.45;71.46;100694.69;5114359;28;20834;-65
2021/05/23 09:22:54;;;;;;;1.30;0.70;;;;;;;15.49;71.14;100700.25;5114468;28;20950;-65
2021/05/23 09:25:32;;;;;;;0.50;0.40;;;;;;;15.56;69.61;100701.34;5114453;28;20443;-66
2021/05/23 09:27:59;;;;;;;0.50;0.40;;;;;;;15.46;68.83;100707.19;5113918;28;20427;-66
2021/05/23 09:30:27;;;;;;;5.93;0.87;;;;;;;15.44;67.12;100705.91;5114206;28;20876;-65
2021/05/23 09:32:55;;;;;;;0.70;0.40;;;;;;;15.50;69.02;100710.06;5113221;28;20446;-65
2021/05/23 09:35:22;;;;;;;0.60;0.50;;;;;;;15.58;67.78;100711.91;5112513;28;20463;-66
2021/05/23 09:38:01;;;;;;;0.40;0.30;;;;;;;15.75;66.48;100708.28;5114022;28;20447;-65
2021/05/23 09:40:31;;;;;;;0.50;0.30;;;;;;;15.91;67.04;100706.56;5113607;28;20446;-66
2021/05/23 09:42:57;;;;;;;0.43;0.33;;;;;;;16.16;65.69;100718.44;5114180;28;20530;-67
2021/05/23 09:45:37;;;;;;;0.50;0.30;;;;;;;16.13;63.43;100716.34;5113985;28;20455;-66
2021/05/23 09:48:05;;;;;;;0.50;0.40;;;;;;;16.18;64.63;100713.41;5114095;28;20455;-66
2021/05/23 09:50:39;;;;;;;0.50;0.30;;;;;;;16.20;63.19;100713.84;5113854;28;20857;-66
2021/05/23 09:53:18;;;;;;;0.50;0.30;;;;;;;16.33;64.35;100718.25;5114013;28;20424;-66
2021/05/23 09:55:59;;;;;;;0.63;0.50;;;;;;;16.38;63.50;100723.53;5113804;28;20478;-66
2021/05/23 09:58:28;;;;;;;0.60;0.47;;;;;;;16.59;63.37;100719.91;5113318;28;20435;-65
2021/05/23 10:00:54;;;;;;;0.60;0.50;;;;;;;16.92;63.40;100717.19;5113955;28;20866;-62
2021/05/23 10:03:24;;;;;;;0.60;0.50;;;;;;;16.97;62.59;100716.94;5113975;28;20941;-65
2021/05/23 10:05:51;;;;;;;0.50;0.30;;;;;;;17.09;61.16;100722.44;5113854;28;20519;-65
2021/05/23 10:08:17;;;;;;;0.70;0.50;;;;;;;17.36;60.85;100728.38;5112882;28;20460;-66
2021/05/23 10:10:44;;;;;;;0.50;0.40;;;;;;;17.32;59.10;100731.00;5113796;28;20487;-65
2021/05/23 10:13:11;;;;;;;0.60;0.43;;;;;;;17.20;58.23;100733.72;5114065;28;20468;-65
2021/05/23 10:15:39;;;;;;;0.70;0.50;;;;;;;17.13;59.55;100739.78;5113725;28;20459;-65
2021/05/23 10:18:05;;;;;;;0.70;0.60;;;;;;;17.11;59.92;100738.50;5112638;28;20447;-65
2021/05/23 10:20:31;;;;;;;0.60;0.40;;;;;;;17.35;60.90;100746.75;5113785;28;20439;-66
2021/05/23 10:22:59;;;;;;;0.60;0.50;;;;;;;17.56;57.56;100740.31;5113818;28;20439;-67
2021/05/23 10:25:27;;;;;;;0.90;0.70;;;;;;;17.63;58.28;100741.34;5113571;28;20467;-66
2021/05/23 10:27:54;;;;;;;0.70;0.60;;;;;;;17.63;56.59;100746.03;5112429;28;20436;-66
2021/05/23 10:30:22;;;;;;;1.10;1.00;;;;;;;17.23;57.32;100752.22;5113495;28;20471;-67
2021/05/23 10:32:48;;;;;;;0.90;0.73;;;;;;;16.93;59.28;100742.59;5113573;28;20443;-66
2021/05/23 10:35:17;;;;;;;0.90;0.80;;;;;;;16.99;59.19;100754.91;5113473;28;20470;-66
2021/05/23 10:37:45;;;;;;;1.40;0.90;;;;;;;16.73;60.43;100757.94;5112568;28;20448;-67
2021/05/23 10:40:23;;;;;;;0.80;0.57;;;;;;;16.48;62.13;100752.38;5113438;28;20435;-65
2021/05/23 10:42:51;;;;;;;0.67;0.67;;;;;;;15.76;63.25;100754.41;5113108;28;20898;-67
2021/05/23 10:45:27;;;;;;;1.20;0.70;;;;;;;15.54;65.20;100763.69;5113291;28;20521;-65
2021/05/23 10:47:55;;;;;;;1.17;0.60;;;;;;;15.39;66.62;100756.03;5116098;28;20426;-66
2021/05/23 10:50:34;;;;;;;0.50;0.40;;;;;;;15.39;68.03;100756.84;5119256;22;20496;-67
2021/05/23 10:53:00;;;;;;;0.50;0.40;;;;;;;15.34;67.72;100765.22;5076353;28;20429;-68
2021/05/23 10:55:27;;;;;;;1.87;1.00;;;;;;;15.20;67.23;100764.63;5076548;28;20456;-67
2021/05/23 10:57:54;;;;;;;0.80;0.63;;;;;;;15.24;68.00;100771.03;5076551;28;20479;-67
2021/05/23 11:00:23;;;;;;;0.90;0.60;;;;;;;15.32;67.53;100759.28;5076267;28;20837;-67
2021/05/23 11:02:50;;;;;;;2.73;0.50;;;;;;;15.43;68.02;100761.63;5076384;28;20437;-68
2021/05/23 11:05:20;;;;;;;0.80;0.60;;;;;;;15.54;68.79;100765.59;5075859;28;20437;-67
2021/05/23 11:08:00;;;;;;;1.33;0.83;;;;;;;15.62;66.66;100775.66;5075295;28;20425;-67
2021/05/23 11:10:30;;;;;;;0.77;0.50;;;;;;;15.67;65.42;100777.44;5075740;28;20587;-68
2021/05/23 11:12:58;;;;;;;0.60;0.57;;;;;;;15.89;65.25;100783.41;5075647;28;20448;-69
2021/05/23 11:15:27;;;;;;;0.77;0.50;;;;;;;16.48;64.67;100787.13;5075623;28;20507;-67
2021/05/23 11:17:54;;;;;;;3.83;0.97;;;;;;;16.94;61.75;100786.03;5074721;28;20448;-69
2021/05/23 11:20:23;;;;;;;0.90;0.70;;;;;;;17.35;60.89;100784.25;5075495;28;20480;-68
2021/05/23 11:22:59;;;;;;;0.50;0.50;;;;;;;18.22;60.81;100783.81;5075526;28;20445;-67
2021/05/23 11:25:26;;;;;;;0.50;0.50;;;;;;;18.80;54.55;100795.25;5075151;28;20440;-69